createdAt,value
2017-10-11T00:02:24.519Z,18.82
2017-10-11T00:04:51.675Z,18.82
2017-10-11T00:07:18.811Z,18.83
2017-10-11T00:09:45.965Z,18.83
2017-10-11T00:12:13.097Z,18.83
2017-10-11T00:14:40.248Z,18.82
2017-10-11T00:17:07.388Z,18.82
2017-10-11T00:19:34.548Z,18.82
2017-10-11T00:22:01.704Z,18.82
2017-10-11T00:24:28.846Z,18.82
2017-10-11T00:26:56.004Z,18.82
2017-10-11T00:29:23.152Z,18.82
2017-10-11T00:31:50.295Z,18.82
2017-10-11T00:34:17.444Z,18.82
2017-10-11T00:36:44.596Z,18.81
2017-10-11T00:39:11.756Z,18.81
2017-10-11T00:41:38.894Z,18.81
2017-10-11T00:44:06.052Z,18.80
2017-10-11T00:46:33.194Z,18.81
2017-10-11T00:49:00.341Z,18.81
2017-10-11T00:51:27.699Z,18.81
2017-10-11T00:53:55.598Z,18.80
2017-10-11T00:56:22.752Z,18.80
2017-10-11T00:58:49.891Z,18.80
2017-10-11T01:01:17.048Z,18.80
2017-10-11T01:03:44.204Z,18.80
2017-10-11T01:06:11.347Z,18.80
2017-10-11T01:08:38.490Z,18.79
2017-10-11T01:11:05.651Z,18.80
2017-10-11T01:13:32.968Z,18.80
2017-10-11T01:16:01.033Z,18.80
2017-10-11T01:18:28.953Z,18.80
2017-10-11T01:20:56.090Z,18.79
2017-10-11T01:23:23.234Z,18.79
2017-10-11T01:25:50.393Z,18.78
2017-10-11T01:28:17.530Z,18.79
2017-10-11T01:30:44.667Z,18.79
2017-10-11T01:33:11.829Z,18.78
2017-10-11T01:35:38.966Z,18.78
2017-10-11T01:38:06.121Z,18.79
2017-10-11T01:40:33.274Z,18.79
2017-10-11T01:43:00.428Z,18.78
2017-10-11T01:45:27.571Z,18.79
2017-10-11T01:47:54.731Z,18.78
2017-10-11T01:50:21.866Z,18.77
2017-10-11T01:52:49.216Z,18.78
2017-10-11T01:55:17.928Z,18.77
2017-10-11T01:57:45.087Z,18.77
2017-10-11T02:00:12.222Z,18.78
2017-10-11T02:02:39.376Z,18.78
2017-10-11T02:05:06.529Z,18.77
2017-10-11T02:07:33.684Z,18.77
2017-10-11T02:10:00.859Z,18.77
2017-10-11T02:12:28.038Z,18.77
2017-10-11T02:14:55.189Z,18.77
2017-10-11T02:17:22.369Z,18.77
2017-10-11T02:19:49.525Z,18.77
2017-10-11T02:22:16.663Z,18.77
2017-10-11T02:24:43.801Z,18.76
2017-10-11T02:27:10.970Z,18.77
2017-10-11T02:29:38.134Z,18.76
2017-10-11T02:32:05.273Z,18.76
2017-10-11T02:34:32.414Z,18.76
2017-10-11T02:36:59.563Z,18.76
2017-10-11T02:39:26.697Z,18.76
2017-10-11T02:41:53.864Z,18.76
2017-10-11T02:44:20.997Z,18.75
2017-10-11T02:46:48.159Z,18.76
2017-10-11T02:49:15.313Z,18.75
2017-10-11T02:51:42.465Z,18.75
2017-10-11T02:54:09.629Z,18.75
2017-10-11T02:56:36.800Z,18.76
2017-10-11T02:59:03.960Z,18.75
2017-10-11T03:01:31.112Z,18.75
2017-10-11T03:03:58.265Z,18.75
2017-10-11T03:06:25.415Z,18.76
2017-10-11T03:08:52.568Z,18.76
2017-10-11T03:11:19.720Z,18.75
2017-10-11T03:13:46.864Z,18.75
2017-10-11T03:16:14.007Z,18.75
2017-10-11T03:18:41.149Z,18.75
2017-10-11T03:21:08.301Z,18.75
2017-10-11T03:23:35.461Z,18.75
2017-10-11T03:26:02.616Z,18.74
2017-10-11T03:28:29.753Z,18.74
2017-10-11T03:30:56.891Z,18.74
2017-10-11T03:33:24.044Z,18.74
2017-10-11T03:35:51.196Z,18.75
2017-10-11T03:38:18.347Z,18.75
2017-10-11T03:40:45.481Z,18.76
2017-10-11T03:43:12.636Z,18.76
2017-10-11T03:45:39.774Z,18.77
2017-10-11T03:48:06.939Z,18.78
2017-10-11T03:50:34.096Z,18.79
2017-10-11T03:53:01.234Z,18.80
2017-10-11T03:55:28.385Z,18.81
2017-10-11T03:57:55.549Z,18.81
2017-10-11T04:00:22.699Z,18.83
2017-10-11T04:02:49.830Z,18.83
2017-10-11T04:05:16.961Z,18.85
2017-10-11T04:07:44.121Z,18.85
2017-10-11T04:10:11.263Z,18.86
2017-10-11T04:12:38.415Z,18.87
2017-10-11T04:15:05.568Z,18.87
2017-10-11T04:17:32.744Z,18.88
2017-10-11T04:19:59.889Z,18.89
2017-10-11T04:22:27.053Z,18.91
2017-10-11T04:24:54.228Z,18.91
2017-10-11T04:27:21.412Z,18.92
2017-10-11T04:29:48.590Z,18.92
2017-10-11T04:32:15.767Z,18.93
2017-10-11T04:34:42.914Z,18.94
2017-10-11T04:37:10.125Z,18.95
2017-10-11T04:39:37.285Z,18.95
2017-10-11T04:42:04.461Z,18.95
2017-10-11T04:44:31.618Z,18.95
2017-10-11T04:46:58.793Z,18.96
2017-10-11T04:49:25.974Z,18.95
2017-10-11T04:51:53.138Z,18.96
2017-10-11T04:54:20.287Z,18.96
2017-10-11T04:56:47.459Z,18.96
2017-10-11T04:59:14.616Z,18.96
2017-10-11T05:01:41.750Z,18.95
2017-10-11T05:04:08.890Z,18.94
2017-10-11T05:06:36.042Z,18.94
2017-10-11T05:09:03.202Z,18.94
2017-10-11T05:11:30.346Z,18.93
2017-10-11T05:13:57.497Z,18.93
2017-10-11T05:16:24.660Z,18.93
2017-10-11T05:18:51.812Z,18.92
2017-10-11T05:21:18.959Z,18.92
2017-10-11T05:23:46.085Z,18.91
2017-10-11T05:26:13.223Z,18.91
2017-10-11T05:28:40.368Z,18.90
2017-10-11T05:31:07.506Z,18.89
2017-10-11T05:33:34.657Z,18.89
2017-10-11T05:36:01.805Z,18.88
2017-10-11T05:38:28.954Z,18.89
2017-10-11T05:40:56.103Z,18.88
2017-10-11T05:43:23.241Z,18.88
2017-10-11T05:45:50.400Z,18.87
2017-10-11T05:48:17.556Z,18.87
2017-10-11T05:50:44.712Z,18.88
2017-10-11T05:53:11.875Z,18.88
2017-10-11T05:55:39.029Z,18.90
2017-10-11T05:58:06.193Z,18.89
2017-10-11T06:00:33.343Z,18.90
2017-10-11T06:03:00.500Z,18.90
2017-10-11T06:05:27.632Z,18.90
2017-10-11T06:07:54.765Z,18.91
2017-10-11T06:10:21.902Z,18.91
2017-10-11T06:12:49.060Z,18.92
2017-10-11T06:15:16.197Z,18.92
2017-10-11T06:17:43.334Z,18.93
2017-10-11T06:20:10.473Z,18.93
2017-10-11T06:22:38.382Z,18.92
2017-10-11T06:25:05.538Z,18.92
2017-10-11T06:27:32.692Z,18.92
2017-10-11T06:29:59.825Z,18.91
2017-10-11T06:32:26.966Z,18.91
2017-10-11T06:34:54.115Z,18.91
2017-10-11T06:37:21.251Z,18.91
2017-10-11T06:39:48.397Z,18.90
2017-10-11T06:42:15.556Z,18.91
2017-10-11T06:44:42.709Z,18.90
2017-10-11T06:47:09.868Z,18.89
2017-10-11T06:49:37.025Z,18.89
2017-10-11T06:52:04.165Z,18.89
2017-10-11T06:54:31.320Z,18.88
2017-10-11T06:56:58.472Z,18.87
2017-10-11T06:59:25.622Z,18.88
2017-10-11T07:01:52.787Z,18.87
2017-10-11T07:04:20.028Z,18.88
2017-10-11T07:06:47.955Z,18.88
2017-10-11T07:09:15.124Z,18.88
2017-10-11T07:11:42.265Z,18.89
2017-10-11T07:14:09.405Z,18.89
2017-10-11T07:16:36.568Z,18.90
2017-10-11T07:19:03.724Z,18.91
2017-10-11T07:21:30.912Z,18.92
2017-10-11T07:23:58.076Z,18.92
2017-10-11T07:26:25.205Z,18.92
2017-10-11T07:28:52.341Z,18.93
2017-10-11T07:31:19.500Z,18.93
2017-10-11T07:33:47.133Z,18.94
2017-10-11T07:36:14.275Z,18.94
2017-10-11T07:38:41.429Z,18.94
2017-10-11T07:41:08.573Z,18.94
2017-10-11T07:43:35.717Z,18.94
2017-10-11T07:46:02.868Z,18.94
2017-10-11T07:48:30.041Z,18.94
2017-10-11T07:50:57.185Z,18.94
2017-10-11T07:53:24.339Z,18.94
2017-10-11T07:55:51.501Z,18.93
2017-10-11T07:58:18.654Z,18.93
2017-10-11T08:00:45.808Z,18.92
2017-10-11T08:03:12.958Z,18.91
2017-10-11T08:05:40.097Z,18.91
2017-10-11T08:08:07.238Z,18.91
2017-10-11T08:10:34.392Z,18.91
2017-10-11T08:13:01.530Z,18.91
2017-10-11T08:15:28.681Z,18.91
2017-10-11T08:17:55.823Z,18.91
2017-10-11T08:20:22.976Z,18.91
2017-10-11T08:22:50.128Z,18.91
2017-10-11T08:25:17.301Z,18.91
2017-10-11T08:27:44.473Z,18.91
2017-10-11T08:30:11.649Z,18.92
2017-10-11T08:32:38.803Z,18.92
2017-10-11T08:35:05.960Z,18.92
2017-10-11T08:37:33.115Z,18.92
2017-10-11T08:40:00.253Z,18.92
2017-10-11T08:42:27.423Z,18.92
2017-10-11T08:44:54.557Z,18.92
2017-10-11T08:47:21.714Z,18.93
2017-10-11T08:49:48.854Z,18.93
2017-10-11T08:52:16.015Z,18.93
2017-10-11T08:54:43.171Z,18.94
2017-10-11T08:57:10.440Z,18.93
2017-10-11T08:59:37.599Z,18.93
2017-10-11T09:02:05.497Z,18.93
2017-10-11T09:04:32.633Z,18.94
2017-10-11T09:06:59.774Z,18.93
2017-10-11T09:09:26.921Z,18.94
2017-10-11T09:11:54.100Z,18.94
2017-10-11T09:14:21.261Z,18.93
2017-10-11T09:16:48.426Z,18.94
2017-10-11T09:19:15.611Z,18.94
2017-10-11T09:21:42.759Z,18.93
2017-10-11T09:24:09.907Z,18.94
2017-10-11T09:26:37.064Z,18.94
2017-10-11T09:29:04.234Z,18.94
2017-10-11T09:31:31.391Z,18.93
2017-10-11T09:33:58.535Z,18.94
2017-10-11T09:36:25.693Z,18.94
2017-10-11T09:38:52.838Z,18.93
2017-10-11T09:41:19.993Z,18.93
2017-10-11T09:43:47.160Z,18.93
2017-10-11T09:46:14.311Z,18.93
2017-10-11T09:48:41.446Z,18.94
2017-10-11T09:51:08.612Z,18.93
2017-10-11T09:53:35.759Z,18.93
2017-10-11T09:56:02.911Z,18.93
2017-10-11T09:58:30.050Z,18.93
2017-10-11T10:00:57.198Z,18.93
2017-10-11T10:03:24.350Z,18.93
2017-10-11T10:05:51.491Z,18.93
2017-10-11T10:08:18.645Z,18.93
2017-10-11T10:10:45.812Z,18.94
2017-10-11T10:13:12.982Z,18.94
2017-10-11T10:15:40.136Z,18.94
2017-10-11T10:18:07.296Z,18.93
2017-10-11T10:20:34.447Z,18.93
2017-10-11T10:23:01.587Z,18.93
2017-10-11T10:25:28.721Z,18.94
2017-10-11T10:27:55.901Z,18.93
2017-10-11T10:30:23.052Z,18.93
2017-10-11T10:32:50.219Z,18.93
2017-10-11T10:35:18.150Z,18.94
2017-10-11T10:37:45.308Z,18.93
2017-10-11T10:40:13.247Z,18.93
2017-10-11T10:42:40.441Z,18.94
2017-10-11T10:45:07.596Z,18.93
2017-10-11T10:47:34.756Z,18.94
2017-10-11T10:50:01.911Z,18.93
2017-10-11T10:52:29.064Z,18.93
2017-10-11T10:54:56.428Z,18.93
2017-10-11T10:57:24.351Z,18.93
2017-10-11T10:59:51.512Z,18.93
2017-10-11T11:02:18.645Z,18.92
2017-10-11T11:04:45.790Z,18.92
2017-10-11T11:07:12.930Z,18.91
2017-10-11T11:09:40.070Z,18.91
2017-10-11T11:12:07.221Z,18.91
2017-10-11T11:14:34.377Z,18.90
2017-10-11T11:17:01.536Z,18.90
2017-10-11T11:19:28.691Z,18.89
2017-10-11T11:21:55.829Z,18.89
2017-10-11T11:24:22.985Z,18.89
2017-10-11T11:26:50.140Z,18.88
2017-10-11T11:29:17.859Z,18.88
2017-10-11T11:31:45.037Z,18.88
2017-10-11T11:34:12.172Z,18.88
2017-10-11T11:36:39.310Z,18.88
2017-10-11T11:39:06.679Z,18.88
2017-10-11T11:41:33.849Z,18.87
2017-10-11T11:44:00.985Z,18.88
2017-10-11T11:46:28.122Z,18.88
2017-10-11T11:48:55.266Z,18.89
2017-10-11T11:51:22.411Z,18.89
2017-10-11T11:53:49.580Z,18.90
2017-10-11T11:56:16.746Z,18.91
2017-10-11T11:58:44.188Z,18.92
2017-10-11T12:01:11.326Z,18.93
2017-10-11T12:03:38.486Z,18.94
2017-10-11T12:06:05.636Z,18.95
2017-10-11T12:08:32.779Z,18.95
2017-10-11T12:10:59.941Z,18.96
2017-10-11T12:13:27.085Z,18.97
2017-10-11T12:15:54.240Z,18.97
2017-10-11T12:18:21.397Z,18.98
2017-10-11T12:20:48.556Z,18.98
2017-10-11T12:23:15.981Z,18.98
2017-10-11T12:25:43.117Z,18.98
2017-10-11T12:28:11.029Z,18.97
2017-10-11T12:30:38.175Z,18.98
2017-10-11T12:33:05.333Z,18.97
2017-10-11T12:35:32.483Z,18.97
2017-10-11T12:37:59.617Z,18.97
2017-10-11T12:40:26.773Z,18.97
2017-10-11T12:42:53.936Z,18.96
2017-10-11T12:45:21.089Z,18.97
2017-10-11T12:47:48.248Z,18.96
2017-10-11T12:50:15.382Z,18.96
2017-10-11T12:52:42.517Z,18.95
2017-10-11T12:55:09.685Z,18.96
2017-10-11T12:57:36.821Z,18.96
2017-10-11T13:00:03.972Z,18.96
2017-10-11T13:02:31.123Z,18.95
2017-10-11T13:04:58.265Z,18.95
2017-10-11T13:07:25.409Z,18.95
2017-10-11T13:09:52.564Z,18.94
2017-10-11T13:12:19.715Z,18.95
2017-10-11T13:14:46.868Z,18.94
2017-10-11T13:17:14.010Z,18.94
2017-10-11T13:19:41.169Z,18.93
2017-10-11T13:22:08.309Z,18.93
2017-10-11T13:24:35.455Z,18.93
2017-10-11T13:27:02.614Z,18.93
2017-10-11T13:29:29.774Z,18.93
2017-10-11T13:31:56.918Z,18.94
2017-10-11T13:34:24.054Z,18.94
2017-10-11T13:36:51.241Z,18.95
2017-10-11T13:39:20.091Z,18.96
2017-10-11T13:41:47.325Z,18.98
2017-10-11T13:44:15.288Z,18.97
2017-10-11T13:46:43.089Z,18.97
2017-10-11T13:49:10.678Z,18.96
2017-10-11T13:51:38.245Z,18.97
2017-10-11T13:54:06.430Z,18.96
2017-10-11T13:56:33.605Z,18.96
2017-10-11T13:59:00.775Z,18.96
2017-10-11T14:01:28.391Z,18.96
2017-10-11T14:03:56.367Z,18.96
2017-10-11T14:06:24.037Z,18.96
2017-10-11T14:08:51.199Z,18.96
2017-10-11T14:11:18.346Z,18.95
2017-10-11T14:13:45.508Z,18.95
2017-10-11T14:16:12.649Z,18.96
2017-10-11T14:18:40.636Z,18.96
2017-10-11T14:21:08.562Z,18.96
2017-10-11T14:23:35.743Z,18.96
2017-10-11T14:26:02.920Z,18.95
2017-10-11T14:28:30.103Z,18.93
2017-10-11T14:30:57.293Z,18.96
2017-10-11T14:33:25.250Z,18.95
2017-10-11T14:35:52.428Z,18.95
2017-10-11T14:38:19.688Z,18.95
2017-10-11T14:40:46.856Z,18.96
2017-10-11T14:43:14.458Z,18.95
2017-10-11T14:45:41.648Z,18.96
2017-10-11T14:48:08.939Z,18.95
2017-10-11T14:50:36.561Z,18.96
2017-10-11T14:53:03.716Z,18.96
2017-10-11T14:55:30.872Z,18.95
2017-10-11T14:57:58.021Z,18.95
2017-10-11T15:00:25.269Z,18.95
2017-10-11T15:02:52.414Z,18.95
2017-10-11T15:05:19.571Z,18.95
2017-10-11T15:07:46.710Z,18.95
2017-10-11T15:10:15.532Z,18.95
2017-10-11T15:12:42.701Z,18.94
2017-10-11T15:15:09.841Z,18.94
2017-10-11T15:17:36.997Z,18.93
2017-10-11T15:20:04.151Z,18.94
2017-10-11T15:22:31.304Z,18.93
2017-10-11T15:24:58.472Z,18.93
2017-10-11T15:27:25.623Z,18.93
2017-10-11T15:29:52.780Z,18.93
2017-10-11T15:32:20.432Z,18.93
2017-10-11T15:34:48.339Z,18.93
2017-10-11T15:37:15.499Z,18.93
2017-10-11T15:39:42.651Z,18.94
2017-10-11T15:42:09.802Z,18.93
2017-10-11T15:44:36.964Z,18.93
2017-10-11T15:47:04.121Z,18.93
2017-10-11T15:49:31.277Z,18.93
2017-10-11T15:51:58.436Z,18.93
2017-10-11T15:54:25.578Z,18.94
2017-10-11T15:56:52.745Z,18.94
2017-10-11T15:59:19.895Z,18.94
2017-10-11T16:01:47.052Z,18.95
2017-10-11T16:04:14.552Z,18.94
2017-10-11T16:06:41.725Z,18.94
2017-10-11T16:09:08.917Z,18.93
2017-10-11T16:11:36.062Z,18.93
2017-10-11T16:14:03.224Z,18.93
2017-10-11T16:16:30.368Z,18.93
2017-10-11T16:18:57.512Z,18.92
2017-10-11T16:21:24.680Z,18.92
2017-10-11T16:23:51.826Z,18.92
2017-10-11T16:26:18.983Z,18.91
2017-10-11T16:28:46.150Z,18.91
2017-10-11T16:31:13.302Z,18.90
2017-10-11T16:33:40.450Z,18.90
2017-10-11T16:36:07.598Z,18.90
2017-10-11T16:38:34.778Z,18.90
2017-10-11T16:41:02.824Z,18.90
2017-10-11T16:43:30.559Z,18.91
2017-10-11T16:45:57.829Z,18.91
2017-10-11T16:48:25.044Z,18.91
2017-10-11T16:50:52.204Z,18.92
2017-10-11T16:53:20.132Z,18.92
2017-10-11T16:55:47.296Z,18.92
2017-10-11T16:58:14.438Z,18.92
2017-10-11T17:00:41.578Z,18.93
2017-10-11T17:03:08.721Z,18.93
2017-10-11T17:05:35.866Z,18.93
2017-10-11T17:08:03.029Z,18.94
2017-10-11T17:10:30.474Z,18.94
2017-10-11T17:12:58.016Z,18.95
2017-10-11T17:15:25.273Z,18.95
2017-10-11T17:17:52.826Z,18.96
2017-10-11T17:20:20.320Z,18.95
2017-10-11T17:22:48.261Z,18.95
2017-10-11T17:25:15.631Z,18.95
2017-10-11T17:27:42.870Z,18.96
2017-10-11T17:30:10.984Z,18.95
2017-10-11T17:32:38.207Z,18.94
2017-10-11T17:35:05.545Z,18.94
2017-10-11T17:37:32.716Z,18.94
2017-10-11T17:39:59.862Z,18.93
2017-10-11T17:42:27.029Z,18.93
2017-10-11T17:44:55.804Z,18.93
2017-10-11T17:47:23.165Z,18.92
2017-10-11T17:49:50.317Z,18.92
2017-10-11T17:52:18.361Z,18.92
2017-10-11T17:54:45.569Z,18.92
2017-10-11T17:57:12.736Z,18.91
2017-10-11T17:59:39.876Z,18.91
2017-10-11T18:02:07.364Z,18.91
2017-10-11T18:04:34.633Z,18.92
2017-10-11T18:07:02.181Z,18.91
2017-10-11T18:09:30.015Z,18.92
2017-10-11T18:11:58.021Z,18.91
2017-10-11T18:14:25.973Z,18.91
2017-10-11T18:16:53.142Z,18.92
2017-10-11T18:19:20.393Z,18.92
2017-10-11T18:21:47.857Z,18.95
2017-10-11T18:24:15.420Z,18.97
2017-10-11T18:26:42.623Z,18.98
2017-10-11T18:29:10.836Z,18.99
2017-10-11T18:31:38.271Z,18.99
2017-10-11T18:34:06.567Z,18.99
2017-10-11T18:36:35.150Z,19.00
2017-10-11T18:39:02.502Z,19.01
2017-10-11T18:41:29.953Z,19.01
2017-10-11T18:43:57.849Z,19.02
2017-10-11T18:46:26.198Z,19.02
2017-10-11T18:48:55.349Z,19.02
2017-10-11T18:51:24.488Z,19.02
2017-10-11T18:53:52.961Z,19.02
2017-10-11T18:56:22.515Z,19.04
2017-10-11T18:58:51.048Z,19.03
2017-10-11T19:01:20.110Z,19.02
2017-10-11T19:03:48.774Z,19.02
2017-10-11T19:06:17.684Z,19.01
2017-10-11T19:08:46.095Z,18.99
2017-10-11T19:11:14.913Z,18.99
2017-10-11T19:13:44.037Z,18.98
2017-10-11T19:16:12.620Z,18.98
2017-10-11T19:18:42.403Z,18.98
2017-10-11T19:21:11.040Z,18.97
2017-10-11T19:23:40.304Z,18.96
2017-10-11T19:26:08.833Z,18.97
2017-10-11T19:28:37.617Z,18.96
2017-10-11T19:31:06.083Z,18.96
2017-10-11T19:33:34.394Z,18.95
2017-10-11T19:36:03.117Z,18.95
2017-10-11T19:38:31.837Z,18.95
2017-10-11T19:41:00.670Z,18.95
2017-10-11T19:43:28.874Z,18.95
2017-10-11T19:45:57.733Z,18.94
2017-10-11T19:48:26.244Z,18.95
2017-10-11T19:50:55.215Z,18.95
2017-10-11T19:53:24.531Z,18.96
2017-10-11T19:55:52.388Z,18.96
2017-10-11T19:58:20.458Z,18.96
2017-10-11T20:00:49.815Z,18.96
2017-10-11T20:03:19.628Z,18.97
2017-10-11T20:05:48.598Z,18.97
2017-10-11T20:08:17.487Z,18.96
2017-10-11T20:10:46.271Z,18.96
2017-10-11T20:13:13.802Z,18.95
2017-10-11T20:15:42.227Z,18.95
2017-10-11T20:18:11.658Z,18.95
2017-10-11T20:20:40.753Z,18.95
2017-10-11T20:23:10.025Z,18.95
2017-10-11T20:25:39.075Z,18.95
2017-10-11T20:28:06.378Z,18.95
2017-10-11T20:30:35.114Z,18.94
2017-10-11T20:33:03.827Z,18.94
2017-10-11T20:35:32.120Z,18.94
2017-10-11T20:37:59.766Z,18.93
2017-10-11T20:40:26.947Z,18.92
2017-10-11T20:42:54.135Z,18.92
2017-10-11T20:45:21.431Z,18.92
2017-10-11T20:47:48.585Z,18.91
2017-10-11T20:50:15.730Z,18.91
2017-10-11T20:52:42.888Z,18.91
2017-10-11T20:55:10.048Z,18.91
2017-10-11T20:57:37.197Z,18.91
2017-10-11T21:00:05.142Z,18.92
2017-10-11T21:02:32.289Z,18.92
2017-10-11T21:04:59.429Z,18.91
2017-10-11T21:07:26.601Z,18.92
2017-10-11T21:09:53.779Z,18.92
2017-10-11T21:12:20.936Z,18.92
2017-10-11T21:14:48.090Z,18.93
2017-10-11T21:17:15.260Z,18.93
2017-10-11T21:19:42.520Z,18.93
2017-10-11T21:22:09.687Z,18.93
2017-10-11T21:24:37.012Z,18.93
2017-10-11T21:27:04.893Z,18.94
2017-10-11T21:29:32.059Z,18.93
2017-10-11T21:31:59.225Z,18.93
2017-10-11T21:34:26.370Z,18.92
2017-10-11T21:36:53.510Z,18.92
2017-10-11T21:39:21.004Z,18.92
2017-10-11T21:41:48.162Z,18.91
2017-10-11T21:44:15.319Z,18.91
2017-10-11T21:46:42.466Z,18.91
2017-10-11T21:49:10.384Z,18.90
2017-10-11T21:51:37.522Z,18.90
2017-10-11T21:54:04.662Z,18.90
2017-10-11T21:56:31.829Z,18.90
2017-10-11T21:58:58.978Z,18.90
2017-10-11T22:01:26.150Z,18.89
2017-10-11T22:03:53.373Z,18.89
2017-10-11T22:06:20.514Z,18.89
2017-10-11T22:08:47.667Z,18.88
2017-10-11T22:11:14.848Z,18.88
2017-10-11T22:13:42.005Z,18.88
2017-10-11T22:16:09.142Z,18.87
2017-10-11T22:18:36.304Z,18.87
2017-10-11T22:21:03.469Z,18.87
2017-10-11T22:23:30.609Z,18.87
2017-10-11T22:25:58.699Z,18.87
2017-10-11T22:28:26.633Z,18.86
2017-10-11T22:30:53.847Z,18.86
2017-10-11T22:33:21.749Z,18.85
2017-10-11T22:35:48.911Z,18.86
2017-10-11T22:38:16.059Z,18.85
2017-10-11T22:40:43.213Z,18.85
2017-10-11T22:43:10.365Z,18.85
2017-10-11T22:45:37.519Z,18.84
2017-10-11T22:48:04.666Z,18.84
2017-10-11T22:50:31.828Z,18.84
2017-10-11T22:52:58.987Z,18.83
2017-10-11T22:55:26.143Z,18.84
2017-10-11T22:57:53.299Z,18.84
2017-10-11T23:00:20.461Z,18.84
2017-10-11T23:02:47.625Z,18.83
2017-10-11T23:05:14.792Z,18.83
2017-10-11T23:07:41.949Z,18.83
2017-10-11T23:10:09.110Z,18.83
2017-10-11T23:12:36.257Z,18.83
2017-10-11T23:15:03.424Z,18.82
2017-10-11T23:17:30.598Z,18.82
2017-10-11T23:19:57.776Z,18.82
2017-10-11T23:22:24.950Z,18.82
2017-10-11T23:24:52.135Z,18.82
2017-10-11T23:27:19.297Z,18.81
2017-10-11T23:29:46.460Z,18.82
2017-10-11T23:32:13.610Z,18.81
2017-10-11T23:34:40.757Z,18.81
2017-10-11T23:37:07.897Z,18.81
2017-10-11T23:39:35.060Z,18.81
2017-10-11T23:42:02.202Z,18.81
2017-10-11T23:44:29.365Z,18.80
2017-10-11T23:46:56.556Z,18.80
2017-10-11T23:49:23.702Z,18.80
2017-10-11T23:51:50.880Z,18.80
2017-10-11T23:54:18.021Z,18.80
2017-10-11T23:56:45.166Z,18.80
2017-10-11T23:59:12.305Z,18.80
